Time;durP1;ratioP1;P1;durP2;ratioP2;P2;SDS_P1;SDS_P2;PMS_P1;PMS_P2;Temp;Humidity;BMP_temperature;BMP_pressure;BME280_temperature;BME280_humidity;BME280_pressure;Samples;Min_cycle;Max_cycle;Signal;HPM_P1;HPM_P2
2021/12/02 00:00:11;;;;;;;2.05;1.85;;;;;;;5.09;95.51;99980.63;10547041;28;20044;-81
2021/12/02 00:05:12;;;;;;;7.55;2.22;;;;;;;4.87;94.35;99985.88;10548307;28;20062;-81
2021/12/02 00:10:12;;;;;;;4.63;2.40;;;;;;;4.65;93.04;99984.91;10547898;28;20042;-81
2021/12/02 00:15:21;;;;;;;3.28;1.30;;;;;;;4.43;92.65;99997.38;10546641;28;20398;-81
2021/12/02 00:25:41;;;;;;;7.10;2.75;;;;;;;4.24;92.77;99994.31;10546602;28;20036;-80
2021/12/02 00:30:42;;;;;;;7.70;2.85;;;;;;;4.22;92.78;99994.50;10528675;28;20028;-81
2021/12/02 00:35:43;;;;;;;8.95;2.58;;;;;;;4.24;93.37;99984.41;10546868;28;20029;-80
2021/12/02 00:40:44;;;;;;;22.23;3.42;;;;;;;4.53;95.21;99990.88;10545632;28;20456;-80
2021/12/02 00:45:44;;;;;;;4.57;2.55;;;;;;;4.63;94.51;99986.97;10529315;28;20032;-80
2021/12/02 00:50:48;;;;;;;3.13;2.83;;;;;;;4.58;93.74;99975.94;10546668;28;20589;-80
2021/12/02 00:55:48;;;;;;;11.25;2.42;;;;;;;4.69;95.85;99988.09;10547790;28;20056;-80
2021/12/02 01:00:50;;;;;;;7.55;2.35;;;;;;;4.80;95.96;99998.38;10546356;28;20028;-80
2021/12/02 01:05:52;;;;;;;5.68;2.28;;;;;;;4.75;96.27;99998.06;10544831;28;20028;-80
2021/12/02 01:10:53;;;;;;;10.10;2.55;;;;;;;4.70;95.90;99999.66;10546040;28;20093;-78
2021/12/02 01:15:53;;;;;;;2.70;1.85;;;;;;;4.75;96.38;99994.56;10545375;28;20092;-80
2021/12/02 01:20:54;;;;;;;13.90;1.80;;;;;;;4.85;94.98;99995.97;10545196;28;20409;-80
2021/12/02 01:25:58;;;;;;;11.48;2.60;;;;;;;4.75;94.35;99995.38;10527232;28;20032;-80
2021/12/02 01:30:58;;;;;;;6.47;1.70;;;;;;;4.69;93.94;99993.47;10543869;28;20467;-80
2021/12/02 01:36:03;;;;;;;1.95;1.38;;;;;;;4.59;93.38;99992.84;10546015;28;20047;-79
2021/12/02 01:41:04;;;;;;;8.32;3.05;;;;;;;4.51;93.13;100006.34;10544399;28;20467;-79
2021/12/02 01:46:04;;;;;;;5.40;2.13;;;;;;;4.65;94.92;100003.69;10544216;28;20061;-79
2021/12/02 01:51:06;;;;;;;5.18;2.63;;;;;;;4.79;95.38;100004.75;10543996;28;20084;-79
2021/12/02 01:56:11;;;;;;;4.90;1.70;;;;;;;4.82;94.92;100004.38;10544100;28;20486;-80
2021/12/02 02:01:25;;;;;;;5.80;1.63;;;;;;;4.68;94.80;100004.34;10545061;28;20032;-80
2021/12/02 02:06:30;;;;;;;4.80;1.55;;;;;;;4.92;97.34;100009.50;10544568;28;20415;-80
2021/12/02 02:11:31;;;;;;;6.88;1.77;;;;;;;4.85;97.03;100030.84;10543651;28;20429;-79
2021/12/02 02:16:32;;;;;;;2.33;1.00;;;;;;;4.49;95.11;100029.81;10543654;28;20028;-80
2021/12/02 02:21:36;;;;;;;2.33;1.45;;;;;;;4.31;95.00;100028.28;10543006;28;20036;-80
2021/12/02 02:26:36;;;;;;;2.10;1.65;;;;;;;4.20;94.43;100028.66;10542200;28;20066;-79
2021/12/02 02:31:38;;;;;;;5.60;1.83;;;;;;;4.23;96.02;100030.16;10543076;28;20061;-80
2021/12/02 02:36:42;;;;;;;18.70;3.20;;;;;;;4.36;96.99;100025.03;10541916;28;20374;-79
2021/12/02 02:41:45;;;;;;;2.20;1.27;;;;;;;4.45;97.55;100018.63;10542046;28;20093;-80
2021/12/02 02:46:46;;;;;;;6.43;2.05;;;;;;;4.48;96.97;100031.66;10542093;28;20035;-80
2021/12/02 02:51:46;;;;;;;2.47;1.95;;;;;;;4.28;96.23;100041.19;10541151;28;20456;-79
2021/12/02 02:56:56;;;;;;;12.25;2.25;;;;;;;4.14;95.53;100037.41;10542283;28;20065;-79
2021/12/02 03:07:27;;;;;;;1.40;1.40;;;;;;;4.01;95.69;100045.19;10545312;28;20115;-79
2021/12/02 03:12:32;;;;;;;6.20;1.73;;;;;;;4.15;96.39;100028.38;10541564;28;20036;-79
2021/12/02 03:17:32;;;;;;;3.55;1.50;;;;;;;4.19;95.87;100025.16;10541824;28;20036;-80
2021/12/02 03:22:33;;;;;;;5.32;1.95;;;;;;;4.33;96.65;100020.03;10539310;28;20468;-80
2021/12/02 03:27:34;;;;;;;3.92;2.42;;;;;;;4.38;96.47;100021.19;10540912;28;20043;-80
2021/12/02 03:32:35;;;;;;;2.45;1.38;;;;;;;4.35;97.13;100034.94;10523135;28;20028;-81
2021/12/02 03:37:35;;;;;;;11.40;2.17;;;;;;;4.19;97.47;100035.06;10540929;28;20115;-80
2021/12/02 03:42:36;;;;;;;7.95;1.55;;;;;;;4.07;96.89;100037.28;10542465;28;20058;-79
2021/12/02 03:47:36;;;;;;;4.93;1.48;;;;;;;3.99;97.32;100023.09;10540916;28;20455;-80
2021/12/02 03:52:37;;;;;;;5.28;1.42;;;;;;;3.97;96.08;100036.69;10539680;28;20083;-81
2021/12/02 03:57:37;;;;;;;4.97;1.98;;;;;;;3.96;95.54;100035.03;10540137;28;20028;-80
2021/12/02 04:02:38;;;;;;;2.33;1.17;;;;;;;3.94;94.90;100026.31;10540317;28;20097;-80
2021/12/02 04:07:38;;;;;;;2.22;1.30;;;;;;;3.99;95.23;100036.50;10540649;28;20047;-80
2021/12/02 04:17:51;;;;;;;10.70;2.60;;;;;;;4.00;95.54;100047.03;10541108;28;20128;-79
2021/12/02 04:22:52;;;;;;;2.45;1.77;;;;;;;3.60;94.84;100042.72;10540584;28;20123;-80
2021/12/02 04:27:53;;;;;;;2.40;1.65;;;;;;;3.51;94.67;100039.25;10540578;28;20032;-79
2021/12/02 04:32:53;;;;;;;7.13;1.02;;;;;;;3.32;93.87;100036.94;10543300;28;20024;-79
2021/12/02 04:37:54;;;;;;;5.97;2.78;;;;;;;3.15;93.10;100036.16;10559638;28;20059;-78
2021/12/02 04:42:54;;;;;;;11.93;2.47;;;;;;;3.14;93.65;100032.66;10559828;28;20035;-80
2021/12/02 04:47:55;;;;;;;7.57;2.55;;;;;;;3.25;94.76;100034.13;10550064;28;20399;-80
2021/12/02 04:52:55;;;;;;;17.38;3.03;;;;;;;3.48;95.90;100037.75;10546858;28;20056;-80
2021/12/02 04:57:55;;;;;;;9.48;2.10;;;;;;;3.66;96.82;100045.53;10545222;28;20052;-80
2021/12/02 05:02:56;;;;;;;6.53;2.45;;;;;;;3.78;95.90;100037.13;10546499;28;20063;-80
2021/12/02 05:07:59;;;;;;;5.32;3.10;;;;;;;3.94;96.09;100045.06;10545620;28;20063;-80
2021/12/02 05:12:59;;;;;;;16.90;2.88;;;;;;;4.18;96.56;100042.25;10546459;28;20089;-80
2021/12/02 05:18:00;;;;;;;4.18;2.15;;;;;;;4.32;96.61;100048.69;10543921;28;20467;-80
2021/12/02 05:23:00;;;;;;;5.40;2.28;;;;;;;4.34;96.10;100056.53;10528973;28;20036;-81
2021/12/02 05:28:01;;;;;;;9.30;2.42;;;;;;;4.29;95.12;100054.41;10549633;28;20045;-80
2021/12/02 05:33:01;;;;;;;9.13;2.78;;;;;;;4.24;95.36;100047.91;10545450;28;20060;-80
2021/12/02 05:38:01;;;;;;;8.15;2.50;;;;;;;4.22;95.89;100049.94;10545108;28;20040;-80
2021/12/02 05:43:02;;;;;;;12.23;3.10;;;;;;;4.23;96.63;100044.41;10544192;28;20024;-82
2021/12/02 05:48:02;;;;;;;4.40;1.52;;;;;;;4.37;96.18;100056.19;10543832;28;20032;-80
2021/12/02 05:53:03;;;;;;;6.63;1.98;;;;;;;4.49;97.23;100053.94;10544177;28;20044;-78
2021/12/02 05:58:06;;;;;;;11.70;3.22;;;;;;;4.49;97.39;100081.56;10543494;28;20048;-80
2021/12/02 06:03:07;;;;;;;4.90;1.83;;;;;;;4.27;97.38;100087.75;10543882;28;20538;-80
2021/12/02 06:08:07;;;;;;;13.57;3.72;;;;;;;4.11;97.89;100116.28;10542804;28;20114;-79
2021/12/02 06:13:08;;;;;;;2.20;1.48;;;;;;;3.98;98.03;100134.78;10544381;28;20040;-79
2021/12/02 06:18:08;;;;;;;6.65;2.33;;;;;;;3.67;96.82;100127.53;10542876;28;20112;-79
2021/12/02 06:23:09;;;;;;;5.78;1.77;;;;;;;3.37;95.54;100126.41;10541185;28;20043;-79
2021/12/02 06:28:09;;;;;;;5.65;2.25;;;;;;;3.15;93.98;100122.59;10543877;28;20040;-80
2021/12/02 06:33:10;;;;;;;1.48;1.38;;;;;;;3.16;95.70;100113.59;10541801;28;20098;-79
2021/12/02 06:38:11;;;;;;;9.13;2.45;;;;;;;3.30;96.71;100100.50;10543642;28;20530;-79
2021/12/02 06:43:14;;;;;;;14.35;3.10;;;;;;;3.37;96.02;100120.22;10542020;28;20040;-79
2021/12/02 06:48:14;;;;;;;1.85;1.52;;;;;;;3.48;96.82;100127.91;10541232;28;20077;-79
2021/12/02 06:53:16;;;;;;;4.63;1.90;;;;;;;3.59;97.20;100114.16;10542212;28;20055;-79
2021/12/02 06:58:17;;;;;;;3.50;1.83;;;;;;;3.50;96.93;100121.38;10540273;28;20048;-80
2021/12/02 07:03:17;;;;;;;3.05;2.72;;;;;;;3.39;96.01;100124.41;10542345;28;20040;-79
2021/12/02 07:08:19;;;;;;;6.72;1.42;;;;;;;3.12;93.54;100125.59;10541623;28;20087;-78
2021/12/02 07:13:20;;;;;;;6.30;1.83;;;;;;;2.98;93.71;100134.31;10540188;28;20044;-79
2021/12/02 07:18:20;;;;;;;5.30;1.42;;;;;;;3.05;94.52;100137.97;10540378;28;20051;-79
2021/12/02 07:23:21;;;;;;;3.83;2.15;;;;;;;2.86;94.06;100139.16;10540395;28;20028;-79
2021/12/02 07:28:21;;;;;;;3.28;2.17;;;;;;;2.80;94.35;100139.81;10540940;28;20028;-78
2021/12/02 07:33:22;;;;;;;3.45;2.03;;;;;;;2.86;95.90;100149.84;10540181;28;20058;-79
2021/12/02 07:38:22;;;;;;;13.77;2.10;;;;;;;3.00;96.34;100156.38;10538283;28;20123;-79
2021/12/02 07:43:23;;;;;;;3.00;2.22;;;;;;;3.03;95.26;100150.69;10543788;28;20065;-79
2021/12/02 07:48:23;;;;;;;4.13;1.85;;;;;;;3.01;95.01;100158.88;10543732;28;20375;-79
2021/12/02 07:53:24;;;;;;;4.15;2.00;;;;;;;3.21;96.29;100163.91;10522611;28;20048;-79
2021/12/02 07:58:25;;;;;;;1.63;1.52;;;;;;;3.23;95.75;100159.22;10539401;28;20032;-79
2021/12/02 08:03:26;;;;;;;1.63;1.52;;;;;;;3.13;93.88;100183.47;10539744;28;20074;-78
2021/12/02 08:08:27;;;;;;;2.10;2.00;;;;;;;3.03;92.91;100198.81;10523032;28;20032;-78
2021/12/02 08:13:30;;;;;;;11.18;2.08;;;;;;;3.85;95.07;100204.13;10548112;28;20112;-79
2021/12/02 08:18:31;;;;;;;6.57;2.67;;;;;;;4.02;95.61;100215.63;10546093;28;20028;-79
2021/12/02 08:23:32;;;;;;;8.10;1.48;;;;;;;3.82;94.09;100229.41;10547406;28;20035;-79
2021/12/02 08:28:32;;;;;;;3.35;3.05;;;;;;;3.46;93.13;100228.94;10546915;28;20043;-79
2021/12/02 08:33:32;;;;;;;5.07;2.50;;;;;;;3.35;92.52;100242.66;10547976;28;20110;-79
2021/12/02 08:38:35;;;;;;;6.90;2.25;;;;;;;4.51;95.87;100243.09;10547478;28;20031;-79
2021/12/02 08:43:35;;;;;;;1.70;1.60;;;;;;;5.78;97.08;100235.53;10547290;28;20036;-79
2021/12/02 08:48:36;;;;;;;2.17;1.98;;;;;;;6.63;97.27;100251.22;10529372;28;20043;-79
2021/12/02 08:53:36;;;;;;;3.53;2.35;;;;;;;7.16;96.73;100257.22;10545912;28;20475;-79
2021/12/02 08:58:38;;;;;;;5.75;1.60;;;;;;;7.32;95.43;100268.78;10528543;28;20062;-79
2021/12/02 09:03:38;;;;;;;2.95;1.70;;;;;;;7.75;95.75;100260.66;10527064;28;20036;-79
2021/12/02 09:08:39;;;;;;;4.63;1.42;;;;;;;8.32;95.41;100268.53;10544068;28;20114;-79
2021/12/02 09:13:40;;;;;;;1.60;1.50;;;;;;;8.59;95.79;100276.84;10544384;28;20035;-79
2021/12/02 09:18:40;;;;;;;3.95;1.52;;;;;;;8.65;96.73;100283.28;10545731;28;20064;-79
2021/12/02 09:23:40;;;;;;;5.18;1.77;;;;;;;7.43;98.39;100303.28;10544010;28;20061;-80
2021/12/02 09:28:41;;;;;;;10.85;1.63;;;;;;;6.18;94.72;100289.91;10544608;28;20097;-79
2021/12/02 09:33:41;;;;;;;2.13;1.67;;;;;;;5.43;92.99;100302.28;10543370;28;20543;-80
2021/12/02 09:38:43;;;;;;;2.70;0.90;;;;;;;4.88;91.44;100308.63;10544035;28;20063;-79
2021/12/02 09:43:43;;;;;;;1.52;1.40;;;;;;;4.78;91.53;100316.06;10544137;28;20032;-80
2021/12/02 09:48:44;;;;;;;1.52;1.42;;;;;;;5.75;94.56;100325.38;10542064;28;20040;-80
2021/12/02 09:53:53;;;;;;;2.58;1.70;;;;;;;6.50;95.77;100321.81;10543261;28;20436;-80
2021/12/02 09:58:56;;;;;;;14.63;2.65;;;;;;;7.83;95.30;100328.75;10545071;28;20086;-79
2021/12/02 10:03:59;;;;;;;3.20;2.63;;;;;;;8.81;95.20;100318.91;10545585;28;20115;-78
2021/12/02 10:09:15;;;;;;;3.70;1.50;;;;;;;10.12;94.39;100333.97;10543897;28;20058;-80
2021/12/02 10:14:25;;;;;;;14.48;2.50;;;;;;;8.49;97.35;100349.22;10543250;28;20443;-80
2021/12/02 10:19:29;;;;;;;5.32;1.85;;;;;;;7.38;95.44;100359.59;10540701;28;20044;-80
2021/12/02 10:24:29;;;;;;;1.35;1.20;;;;;;;6.78;95.19;100353.47;10543868;28;20036;-79
2021/12/02 10:29:31;;;;;;;5.25;1.80;;;;;;;6.45;95.70;100369.97;10544621;28;20401;-80
2021/12/02 10:34:32;;;;;;;5.88;1.42;;;;;;;6.18;96.06;100365.19;10542618;28;20039;-78
2021/12/02 10:39:32;;;;;;;2.30;1.73;;;;;;;5.96;96.68;100383.00;10525298;28;20043;-79
2021/12/02 10:44:34;;;;;;;2.35;1.50;;;;;;;5.67;96.08;100408.69;10524859;28;20127;-79
2021/12/02 10:49:42;;;;;;;4.00;1.25;;;;;;;4.69;94.52;100461.94;10524300;28;20395;-79
2021/12/02 10:54:44;;;;;;;6.07;1.73;;;;;;;3.71;96.36;100465.41;10544233;28;20048;-79
2021/12/02 10:59:48;;;;;;;1.98;0.95;;;;;;;3.01;97.67;100469.16;10541725;28;20032;-79
2021/12/02 11:04:50;;;;;;;1.33;1.20;;;;;;;2.88;98.36;100482.13;10539986;28;20024;-79
2021/12/02 11:09:52;;;;;;;1.98;1.20;;;;;;;2.92;98.21;100472.78;10540104;28;20082;-80
2021/12/02 11:15:15;;;;;;;2.10;1.77;;;;;;;2.95;98.11;100477.81;10541259;28;20047;-80
2021/12/02 11:20:26;;;;;;;4.38;1.60;;;;;;;3.05;98.30;100474.19;10540476;28;20097;-78
2021/12/02 11:25:27;;;;;;;7.63;1.77;;;;;;;3.07;98.19;100456.16;10541645;28;20105;-80
2021/12/02 11:30:28;;;;;;;1.52;1.42;;;;;;;3.13;97.97;100456.34;10540653;28;20054;-81
2021/12/02 11:35:32;;;;;;;2.25;2.00;;;;;;;3.31;98.17;100458.91;10540443;28;20105;-80
2021/12/02 11:40:35;;;;;;;3.50;2.47;;;;;;;3.43;97.97;100462.97;10540594;28;20043;-80
2021/12/02 11:45:42;;;;;;;2.33;2.13;;;;;;;3.44;96.50;100461.13;10545894;28;20421;-80
2021/12/02 11:50:43;;;;;;;3.38;1.48;;;;;;;3.39;95.34;100460.81;10534432;28;20124;-81
2021/12/02 11:55:43;;;;;;;4.28;2.20;;;;;;;3.47;95.05;100476.88;10550143;28;20048;-79
2021/12/02 12:00:44;;;;;;;2.92;2.05;;;;;;;3.92;95.81;100486.38;10548429;28;20047;-80
2021/12/02 12:06:19;;;;;;;8.23;1.80;;;;;;;5.45;95.65;100495.44;10532301;28;20032;-80
2021/12/02 12:11:23;;;;;;;3.05;2.08;;;;;;;6.40;97.53;100496.06;10552614;28;20040;-81
2021/12/02 12:16:35;;;;;;;2.28;2.10;;;;;;;6.35;96.78;100505.69;10552778;28;20054;-80
2021/12/02 12:21:37;;;;;;;5.35;1.92;;;;;;;5.51;94.63;100517.06;10548202;28;20028;-80
2021/12/02 12:26:38;;;;;;;2.20;1.73;;;;;;;6.09;94.34;100527.56;10547730;28;20025;-80
2021/12/02 12:31:51;;;;;;;2.38;1.88;;;;;;;7.44;96.06;100517.78;10546903;28;20031;-80
2021/12/02 12:36:52;;;;;;;9.02;2.08;;;;;;;7.91;96.95;100524.56;10547222;28;20528;-80
2021/12/02 12:42:15;;;;;;;3.05;2.25;;;;;;;8.43;95.56;100526.22;10547561;28;20090;-80
2021/12/02 12:47:16;;;;;;;8.35;1.70;;;;;;;8.54;95.16;100512.22;10546589;28;20070;-80
2021/12/02 12:52:18;;;;;;;4.20;1.48;;;;;;;8.14;94.00;100511.78;10528880;28;20078;-80
2021/12/02 12:57:19;;;;;;;11.45;1.95;;;;;;;8.11;94.39;100511.34;10544460;28;20036;-80
2021/12/02 13:02:19;;;;;;;8.13;2.00;;;;;;;7.98;95.17;100514.72;10547374;28;20117;-79
2021/12/02 13:07:20;;;;;;;2.22;1.48;;;;;;;7.80;94.98;100512.44;10529749;28;20036;-79
2021/12/02 13:12:36;;;;;;;6.68;2.38;;;;;;;7.87;95.83;100521.44;10550846;28;20036;-80
2021/12/02 13:17:40;;;;;;;3.35;1.75;;;;;;;7.86;96.71;100521.63;10549985;28;20020;-79
2021/12/02 13:22:40;;;;;;;5.22;2.05;;;;;;;7.86;97.25;100522.47;10547308;28;20028;-80
2021/12/02 13:27:41;;;;;;;5.25;1.80;;;;;;;7.55;98.78;100543.41;10545306;28;20027;-80
2021/12/02 13:32:48;;;;;;;6.80;2.33;;;;;;;7.14;97.65;100542.00;10527597;28;20042;-80
2021/12/02 13:38:01;;;;;;;10.32;1.65;;;;;;;6.49;96.05;100586.47;10544756;28;20032;-80
2021/12/02 13:43:02;;;;;;;1.90;1.70;;;;;;;6.01;96.15;100606.41;10545076;28;20059;-79
2021/12/02 13:48:16;;;;;;;5.20;1.65;;;;;;;5.76;96.92;100608.31;10543485;28;20040;-79
2021/12/02 13:53:17;;;;;;;7.63;2.67;;;;;;;5.85;97.61;100603.75;10543563;28;20135;-79
2021/12/02 13:58:28;;;;;;;3.72;1.80;;;;;;;5.76;96.49;100616.38;10542935;28;20123;-80
2021/12/02 14:03:29;;;;;;;9.02;1.98;;;;;;;5.31;95.22;100642.00;10544103;28;20048;-80
2021/12/02 14:08:30;;;;;;;7.35;1.80;;;;;;;5.09;95.01;100633.59;10540731;28;20036;-79
2021/12/02 14:13:30;;;;;;;5.13;1.75;;;;;;;5.04;95.73;100645.84;10541985;28;20421;-79
2021/12/02 14:18:34;;;;;;;7.15;2.88;;;;;;;5.18;95.56;100650.56;10542893;28;20051;-78
2021/12/02 14:23:39;;;;;;;4.05;2.42;;;;;;;5.21;95.22;100654.75;10543041;28;20069;-81
2021/12/02 14:28:42;;;;;;;3.83;2.15;;;;;;;5.15;95.33;100656.25;10545784;28;20036;-79
2021/12/02 14:33:42;;;;;;;7.22;2.00;;;;;;;5.38;96.90;100663.63;10550730;28;20063;-79
2021/12/02 14:38:47;;;;;;;2.13;1.55;;;;;;;5.53;97.98;100667.31;10539637;28;20471;-79
2021/12/02 14:44:05;;;;;;;10.48;2.35;;;;;;;5.33;97.24;100683.78;10542200;28;20032;-79
2021/12/02 14:49:11;;;;;;;8.18;2.20;;;;;;;4.93;95.52;100679.22;10541156;28;20412;-79
2021/12/02 14:54:13;;;;;;;2.77;2.53;;;;;;;4.74;95.05;100688.41;10541219;28;20360;-78
2021/12/02 14:59:21;;;;;;;13.18;2.55;;;;;;;4.57;94.08;100692.09;10541860;28;20105;-79
2021/12/02 15:04:22;;;;;;;8.52;1.92;;;;;;;4.42;93.75;100700.72;10544528;28;20043;-79
2021/12/02 15:09:34;;;;;;;5.93;1.55;;;;;;;4.21;93.89;100719.06;10544269;28;20495;-79
2021/12/02 15:14:34;;;;;;;11.25;2.30;;;;;;;4.08;94.77;100711.47;10540552;28;20052;-79
2021/12/02 15:19:36;;;;;;;13.93;1.95;;;;;;;4.03;94.73;100721.00;10540672;28;20590;-79
2021/12/02 15:24:38;;;;;;;4.53;2.47;;;;;;;3.91;95.45;100731.16;10523321;28;20032;-79
2021/12/02 15:29:47;;;;;;;16.98;2.75;;;;;;;4.03;97.15;100745.97;10539440;28;20043;-79
2021/12/02 15:34:47;;;;;;;2.05;1.83;;;;;;;4.11;97.24;100762.06;10539004;28;20438;-79
2021/12/02 15:39:48;;;;;;;2.42;1.65;;;;;;;4.14;97.28;100779.69;10539905;28;20039;-79
2021/12/02 15:44:49;;;;;;;7.32;3.17;;;;;;;4.26;98.61;100797.16;10539333;28;20036;-79
2021/12/02 15:49:59;;;;;;;6.80;1.90;;;;;;;4.33;99.04;100808.94;10539478;28;20040;-79
2021/12/02 15:55:00;;;;;;;2.00;1.77;;;;;;;4.34;99.15;100840.13;10539902;28;20538;-79
2021/12/02 16:00:04;;;;;;;3.40;3.10;;;;;;;4.40;98.71;100849.34;10538520;28;20046;-79
2021/12/02 16:05:12;;;;;;;5.65;1.92;;;;;;;4.31;97.96;100886.00;10538944;28;20482;-80
2021/12/02 16:15:19;;;;;;;5.03;2.55;;;;;;;3.06;96.13;100903.88;10540451;28;20051;-79
2021/12/02 16:20:20;;;;;;;5.00;1.92;;;;;;;2.89;97.00;100908.19;10539616;28;20043;-79
2021/12/02 16:25:21;;;;;;;5.53;1.83;;;;;;;2.85;97.25;100902.28;10539971;28;20479;-80
2021/12/02 16:30:22;;;;;;;1.85;1.73;;;;;;;2.84;96.95;100900.63;10540973;28;20060;-80
2021/12/02 16:35:23;;;;;;;9.75;2.28;;;;;;;2.72;96.82;100904.47;10550060;28;20121;-80
2021/12/02 16:40:27;;;;;;;5.03;2.60;;;;;;;2.52;95.52;100911.69;10549640;28;20035;-80
2021/12/02 16:45:32;;;;;;;5.13;2.45;;;;;;;2.28;94.48;100907.66;10552089;28;20028;-80
2021/12/02 16:50:33;;;;;;;4.60;3.03;;;;;;;2.10;94.07;100899.53;10549367;28;20035;-80
2021/12/02 16:55:33;;;;;;;8.73;3.28;;;;;;;2.05;95.13;100917.00;10547040;28;20052;-80
2021/12/02 17:00:36;;;;;;;6.35;3.85;;;;;;;2.05;95.74;100928.50;10545696;28;20166;-79
2021/12/02 17:05:37;;;;;;;17.40;3.05;;;;;;;2.24;97.76;100958.88;10546109;28;20036;-80
2021/12/02 17:10:38;;;;;;;4.95;3.35;;;;;;;2.55;98.35;100986.25;10553875;28;20036;-80
2021/12/02 17:15:38;;;;;;;10.55;2.92;;;;;;;2.58;98.57;100963.72;10547979;28;20044;-80
2021/12/02 17:20:39;;;;;;;2.45;2.30;;;;;;;2.50;97.68;100962.63;10547239;28;20055;-80
2021/12/02 17:25:39;;;;;;;9.15;3.25;;;;;;;2.20;95.13;100960.13;10528649;28;20024;-80
2021/12/02 17:30:40;;;;;;;6.78;2.33;;;;;;;1.97;94.64;100963.09;10544718;28;20047;-80
2021/12/02 17:35:40;;;;;;;6.97;2.40;;;;;;;1.82;94.01;100977.84;10544842;28;20040;-79
2021/12/02 17:40:44;;;;;;;11.88;3.05;;;;;;;1.70;93.64;100963.78;10545278;28;20056;-79
2021/12/02 17:45:45;;;;;;;5.18;3.33;;;;;;;1.61;93.28;100964.59;10545389;28;20111;-80
2021/12/02 17:50:47;;;;;;;5.20;3.17;;;;;;;1.51;94.05;100961.91;10546755;28;20115;-80
2021/12/02 17:55:48;;;;;;;12.95;3.63;;;;;;;1.50;93.56;100970.03;10546528;28;20056;-80
2021/12/02 18:00:48;;;;;;;7.63;2.92;;;;;;;1.59;95.15;100972.72;10545627;28;20399;-80
2021/12/02 18:05:49;;;;;;;9.30;3.60;;;;;;;1.95;97.64;100978.44;10544392;28;20112;-80
2021/12/02 18:10:49;;;;;;;9.52;3.40;;;;;;;2.16;98.77;100986.28;10527851;28;20032;-80
2021/12/02 18:15:49;;;;;;;7.57;3.08;;;;;;;2.36;98.94;100992.44;10545619;28;20086;-80
2021/12/02 18:20:50;;;;;;;9.35;4.22;;;;;;;2.35;98.80;100992.63;10545371;28;20060;-80
2021/12/02 18:25:51;;;;;;;9.13;3.72;;;;;;;2.29;98.38;100996.69;10543625;28;20059;-80
2021/12/02 18:30:51;;;;;;;14.93;3.22;;;;;;;2.18;97.46;101007.53;10544423;28;20434;-80
2021/12/02 18:35:52;;;;;;;14.75;4.72;;;;;;;2.00;95.58;101018.06;10544445;28;20067;-80
2021/12/02 18:40:52;;;;;;;7.68;4.00;;;;;;;1.85;95.46;101021.13;10543398;28;20510;-80
2021/12/02 18:45:52;;;;;;;9.73;4.50;;;;;;;1.80;95.42;101020.69;10542920;28;20040;-81
2021/12/02 18:50:53;;;;;;;4.88;3.63;;;;;;;1.77;94.94;101034.31;10544008;28;20047;-80
2021/12/02 18:55:53;;;;;;;11.95;4.05;;;;;;;1.76;94.51;101037.16;10546377;28;20416;-80
2021/12/02 19:00:54;;;;;;;9.50;4.82;;;;;;;1.71;93.62;101042.03;10552375;28;20036;-81
2021/12/02 19:06:07;;;;;;;8.82;4.40;;;;;;;1.57;93.67;101046.78;10542921;28;20439;-80
2021/12/02 19:27:04;;;;;;;5.03;2.65;;;;;;;1.41;95.58;101054.44;10551303;28;20044;-80
2021/12/02 19:32:05;;;;;;;9.48;4.78;;;;;;;1.58;96.71;101056.47;10539999;28;20421;-80
2021/12/02 19:37:06;;;;;;;9.05;5.22;;;;;;;1.62;97.01;101052.53;10540676;28;20443;-79
2021/12/02 19:42:06;;;;;;;11.80;7.72;;;;;;;1.74;96.48;101066.63;10538521;28;20032;-80
2021/12/02 19:47:07;;;;;;;18.20;7.05;;;;;;;1.86;96.69;101068.22;10539433;28;20051;-79
2021/12/02 19:52:07;;;;;;;17.90;9.02;;;;;;;1.80;96.22;101070.59;10540104;28;20036;-81
2021/12/02 19:57:08;;;;;;;8.18;5.28;;;;;;;1.71;95.31;101076.75;10539162;28;20048;-80
2021/12/02 20:02:08;;;;;;;15.07;5.40;;;;;;;1.72;94.84;101078.41;10540473;28;20055;-82
2021/12/02 20:07:09;;;;;;;11.52;5.97;;;;;;;1.61;94.46;101077.53;10547393;28;20035;-82
2021/12/02 20:12:10;;;;;;;6.35;4.43;;;;;;;1.58;93.93;101080.50;10551559;28;20118;-80
2021/12/02 20:17:12;;;;;;;7.85;3.72;;;;;;;1.51;93.22;101084.69;10549413;28;20024;-81
2021/12/02 20:22:12;;;;;;;7.82;4.47;;;;;;;1.48;93.31;101071.59;10551228;28;20055;-83
2021/12/02 20:27:13;;;;;;;6.30;4.47;;;;;;;1.34;92.88;101071.94;10549737;28;20067;-83
2021/12/02 20:32:13;;;;;;;7.05;5.05;;;;;;;1.20;92.79;101083.81;10529253;28;20529;-81
2021/12/02 20:37:14;;;;;;;15.00;4.93;;;;;;;1.16;92.64;101088.59;10530026;28;20079;-80
2021/12/02 20:42:14;;;;;;;18.10;6.15;;;;;;;1.08;91.95;101092.88;10547940;28;20417;-79
2021/12/02 20:47:15;;;;;;;5.88;4.90;;;;;;;0.98;91.74;101091.97;10548321;28;20032;-79
2021/12/02 20:52:15;;;;;;;16.88;5.85;;;;;;;1.00;92.94;101093.53;10529625;28;20024;-80
2021/12/02 20:57:17;;;;;;;17.02;8.18;;;;;;;1.05;93.21;101085.13;10546195;28;20048;-81
2021/12/02 21:02:19;;;;;;;12.20;5.55;;;;;;;1.05;93.35;101085.97;10549573;28;20044;-83
2021/12/02 21:07:20;;;;;;;12.77;5.90;;;;;;;1.07;93.28;101096.53;10533083;28;20071;-80
2021/12/02 21:12:20;;;;;;;11.18;8.05;;;;;;;0.97;92.53;101084.97;10560242;28;20036;-81
2021/12/02 21:17:21;;;;;;;21.75;10.10;;;;;;;0.92;92.32;101074.66;10550893;28;20028;-79
2021/12/02 21:22:21;;;;;;;13.77;8.10;;;;;;;0.90;92.44;101072.16;10548582;28;20115;-82
2021/12/02 21:27:23;;;;;;;19.10;7.53;;;;;;;0.90;93.42;101071.31;10483382;28;20047;-78
2021/12/02 21:32:24;;;;;;;25.50;7.97;;;;;;;0.88;93.36;101075.91;10544838;28;20372;-78
2021/12/02 21:37:31;;;;;;;8.88;5.82;;;;;;;0.79;93.23;101085.53;10545336;28;20035;-78
2021/12/02 21:42:31;;;;;;;10.32;4.55;;;;;;;0.67;92.14;101086.56;10549580;28;20028;-78
2021/12/02 21:47:32;;;;;;;6.50;5.50;;;;;;;0.76;94.03;101084.94;10545328;28;20032;-78
2021/12/02 21:52:33;;;;;;;7.53;3.17;;;;;;;0.85;95.61;101074.34;10543187;28;20115;-77
2021/12/02 21:57:36;;;;;;;4.05;3.63;;;;;;;1.02;96.22;101088.06;10545188;28;20051;-78
2021/12/02 22:02:36;;;;;;;7.22;4.60;;;;;;;1.19;96.21;101090.16;10545094;28;20039;-78
2021/12/02 22:07:37;;;;;;;7.45;3.75;;;;;;;1.22;96.05;101083.72;10525567;28;20087;-78
2021/12/02 22:12:38;;;;;;;4.57;4.13;;;;;;;1.24;95.91;101095.06;10544577;28;20452;-78
2021/12/02 22:17:38;;;;;;;3.70;3.40;;;;;;;1.25;95.49;101104.78;10542947;28;20032;-78
2021/12/02 22:22:39;;;;;;;8.73;3.97;;;;;;;1.18;94.75;101115.09;10544316;28;20066;-78
2021/12/02 22:27:39;;;;;;;7.40;4.57;;;;;;;1.17;94.17;101114.25;10542531;28;20468;-78
2021/12/02 22:32:41;;;;;;;6.95;3.55;;;;;;;1.16;93.96;101120.59;10544742;28;20447;-78
2021/12/02 22:37:43;;;;;;;5.18;3.25;;;;;;;1.15;93.71;101129.56;10547324;28;20081;-79
2021/12/02 22:42:45;;;;;;;7.57;4.10;;;;;;;1.23;94.74;101117.41;10549511;28;20043;-79
2021/12/02 22:47:46;;;;;;;11.00;3.42;;;;;;;1.35;95.23;101114.53;10548958;28;20036;-79
2021/12/02 22:52:46;;;;;;;11.77;4.10;;;;;;;1.32;94.11;101121.94;10545881;28;20046;-79
2021/12/02 22:57:48;;;;;;;10.48;3.95;;;;;;;1.22;93.86;101135.22;10541232;28;20474;-75
2021/12/02 23:02:49;;;;;;;7.43;3.58;;;;;;;1.21;93.25;101132.69;10523269;28;20043;-76
2021/12/02 23:13:48;;;;;;;5.13;3.00;;;;;;;1.21;94.05;101111.34;10453090;28;20037;-76
2021/12/02 23:18:49;;;;;;;10.18;3.30;;;;;;;1.27;94.74;101106.31;10535030;28;20044;-76
2021/12/02 23:23:50;;;;;;;6.88;3.88;;;;;;;1.41;95.41;101107.81;10545732;28;20352;-76
2021/12/02 23:28:53;;;;;;;5.60;3.95;;;;;;;1.42;94.82;101104.16;10544364;28;20027;-76
2021/12/02 23:33:56;;;;;;;16.80;4.15;;;;;;;1.31;93.93;101107.78;10546129;28;20024;-75
2021/12/02 23:38:57;;;;;;;4.28;3.13;;;;;;;1.13;92.74;101110.19;10551033;28;20027;-76
2021/12/02 23:43:57;;;;;;;6.97;4.15;;;;;;;1.06;93.13;101102.84;10555361;28;20536;-76
2021/12/02 23:48:58;;;;;;;5.78;2.85;;;;;;;0.99;93.27;101097.19;10552719;28;20032;-75
2021/12/02 23:53:58;;;;;;;3.20;2.95;;;;;;;0.99;94.48;101097.19;10554401;28;20056;-76
2021/12/02 23:58:59;;;;;;;12.88;3.65;;;;;;;0.92;93.45;101088.00;10553874;28;20119;-76
